Eurasian Highway — 7JKY — position and weather

sailwx.info

Track history (hours):
 
Tides and Currents Weather Stations Pressure Air Temp Water Temp Dewpoint Dewpoint Depression Visibility Wind Speed Wind Dir Waves Ship Positions

Eurasian Highway

Last reported at 2014-Nov-23 04:29 UTC. Time now 2014-Nov-24 16:23 UTC.
Position S 34°28' E 150°55'.

Length 199 m; draft 8.9 m.

Type: Cargo ship. MMSI: 432839000.

Date/timePositionNaut miles runAvg speedWind from/ knotsBaromVisibWave heightAir tempDewpointWater temp
2014-Nov-23 04:29S 34°28' E 150°55'1112.1
2014-Nov-23 03:33S 34°19' E 151°03'1919.3
2014-Nov-23 02:33S 34°07' E 151°22'1919.2
2014-Nov-23 01:33S 33°53' E 151°36'1918.1
2014-Nov-23 00:31S 33°37' E 151°50'2018.9
2014-Nov-22 23:27S 33°21' E 152°04'1719.0
2014-Nov-22 22:33S 33°07' E 152°16'1918.5
2014-Nov-22 21:33S 32°52' E 152°29'1918.9
2014-Nov-22 20:33S 32°37' E 152°42'4319.4
2014-Nov-22 18:19S 31°56' E 152°59'23020.9
2014-Nov-22 07:19S 28°10' E 153°48'1520.0
2014-Nov-22 06:33S 27°54' E 153°47'2120.7
2014-Nov-22 05:33S 27°34' E 153°45'2121.3
2014-Nov-22 04:33S 27°13' E 153°39'2019.9
2014-Nov-22 03:33S 26°55' E 153°31'1818.2
2014-Nov-22 02:33S 26°45' E 153°14'8 8.1
2014-Nov-22 01:33S 26°52' E 153°10'1615.9
2014-Nov-22 00:33S 27°06' E 153°19'1312.7
2014-Nov-21 23:33S 27°17' E 153°14'6 6.2
2014-Nov-21 22:31S 27°23' E 153°10'0 0.0
2014-Nov-21 21:31S 27°23' E 153°10'0 0.0
2014-Nov-21 20:31S 27°23' E 153°10'0 0.0
2014-Nov-21 19:31S 27°23' E 153°10'0 0.0
2014-Nov-21 18:28S 27°23' E 153°10'0 0.0
2014-Nov-21 17:31S 27°23' E 153°10'0 0.0
2014-Nov-21 16:31S 27°23' E 153°10'0 0.0
2014-Nov-21 15:31S 27°23' E 153°10'0 0.0
2014-Nov-21 14:31S 27°23' E 153°10'0 0.0
2014-Nov-21 13:31S 27°23' E 153°10'0 0.0
2014-Nov-21 12:31S 27°23' E 153°10'0 0.0
2014-Nov-21 11:31S 27°23' E 153°10'0 0.0
2014-Nov-21 10:31S 27°23' E 153°10'0 0.0
2014-Nov-21 09:31S 27°23' E 153°10'0 0.0
2014-Nov-21 08:31S 27°23' E 153°10'0 0.0
2014-Nov-21 07:31S 27°23' E 153°10'0 0.0
2014-Nov-21 06:31S 27°23' E 153°10'0 0.0
2014-Nov-21 05:31S 27°23' E 153°10'0 0.0
2014-Nov-21 04:31S 27°23' E 153°10'0 0.0
2014-Nov-21 03:28S 27°23' E 153°10'0 0.0
2014-Nov-21 02:31S 27°23' E 153°10'0 0.0
2014-Nov-21 01:28S 27°23' E 153°10'0 0.0
2014-Nov-21 00:31S 27°23' E 153°10'0 0.0
2014-Nov-20 23:31S 27°23' E 153°10'0 0.0
2014-Nov-20 22:31S 27°23' E 153°10'0 0.0
2014-Nov-20 21:31S 27°23' E 153°10'0 0.0
2014-Nov-20 20:31S 27°23' E 153°10'0 0.0
2014-Nov-20 19:31S 27°23' E 153°10'3 2.9
2014-Nov-20 18:33S 27°20' E 153°11'1312.5
2014-Nov-20 17:33S 27°11' E 153°21'2813.8
2014-Nov-20 15:33S 26°45' E 153°12'3 3.0
2014-Nov-20 14:33S 26°42' E 153°14'0 0.0
2014-Nov-20 13:33S 26°42' E 153°14'0 0.0
2014-Nov-20 12:33S 26°42' E 153°14'0 0.0
2014-Nov-20 11:33S 26°42' E 153°14'0 0.0
2014-Nov-20 10:33S 26°42' E 153°14'0 0.0
2014-Nov-20 09:33S 26°42' E 153°14'0 0.0
2014-Nov-20 08:33S 26°42' E 153°14'0 0.0
2014-Nov-20 07:33S 26°42' E 153°14'0 0.0
2014-Nov-20 06:33S 26°42' E 153°14'0 0.1
2014-Nov-20 05:33S 26°42' E 153°14'7 7.3
2014-Nov-20 04:33S 26°35' E 153°16'1918.9
2014-Nov-20 03:32S 26°17' E 153°21'1918.9
2014-Nov-20 02:33S 25°59' E 153°27'  
Track history (hours):
 
Tides and Currents Weather Stations Pressure Air Temp Water Temp Dewpoint Dewpoint Depression Visibility Wind Speed Wind Dir Waves Ship Positions

Eurasian Highway

Last reported at 2014-Nov-23 04:29 UTC. Time now 2014-Nov-24 16:23 UTC.
Position S 34°28' E 150°55'.

Length 199 m; draft 8.9 m.

Type: Cargo ship. MMSI: 432839000.

Date/timePositionNaut miles runAvg speedWind from/ knotsBaromVisibWave heightAir tempDewpointWater temp
2014-Nov-23 04:29S 34°28' E 150°55'1112.1
2014-Nov-23 03:33S 34°19' E 151°03'1919.3
2014-Nov-23 02:33S 34°07' E 151°22'1919.2
2014-Nov-23 01:33S 33°53' E 151°36'1918.1
2014-Nov-23 00:31S 33°37' E 151°50'2018.9
2014-Nov-22 23:27S 33°21' E 152°04'1719.0
2014-Nov-22 22:33S 33°07' E 152°16'1918.5
2014-Nov-22 21:33S 32°52' E 152°29'1918.9
2014-Nov-22 20:33S 32°37' E 152°42'4319.4
2014-Nov-22 18:19S 31°56' E 152°59'23020.9
2014-Nov-22 07:19S 28°10' E 153°48'1520.0
2014-Nov-22 06:33S 27°54' E 153°47'2120.7
2014-Nov-22 05:33S 27°34' E 153°45'2121.3
2014-Nov-22 04:33S 27°13' E 153°39'2019.9
2014-Nov-22 03:33S 26°55' E 153°31'1818.2
2014-Nov-22 02:33S 26°45' E 153°14'8 8.1
2014-Nov-22 01:33S 26°52' E 153°10'1615.9
2014-Nov-22 00:33S 27°06' E 153°19'1312.7
2014-Nov-21 23:33S 27°17' E 153°14'6 6.2
2014-Nov-21 22:31S 27°23' E 153°10'0 0.0
2014-Nov-21 21:31S 27°23' E 153°10'0 0.0
2014-Nov-21 20:31S 27°23' E 153°10'0 0.0
2014-Nov-21 19:31S 27°23' E 153°10'0 0.0
2014-Nov-21 18:28S 27°23' E 153°10'0 0.0
2014-Nov-21 17:31S 27°23' E 153°10'0 0.0
2014-Nov-21 16:31S 27°23' E 153°10'0 0.0
2014-Nov-21 15:31S 27°23' E 153°10'0 0.0
2014-Nov-21 14:31S 27°23' E 153°10'0 0.0
2014-Nov-21 13:31S 27°23' E 153°10'0 0.0
2014-Nov-21 12:31S 27°23' E 153°10'0 0.0
2014-Nov-21 11:31S 27°23' E 153°10'0 0.0
2014-Nov-21 10:31S 27°23' E 153°10'0 0.0
2014-Nov-21 09:31S 27°23' E 153°10'0 0.0
2014-Nov-21 08:31S 27°23' E 153°10'0 0.0
2014-Nov-21 07:31S 27°23' E 153°10'0 0.0
2014-Nov-21 06:31S 27°23' E 153°10'0 0.0
2014-Nov-21 05:31S 27°23' E 153°10'0 0.0
2014-Nov-21 04:31S 27°23' E 153°10'0 0.0
2014-Nov-21 03:28S 27°23' E 153°10'0 0.0
2014-Nov-21 02:31S 27°23' E 153°10'0 0.0
2014-Nov-21 01:28S 27°23' E 153°10'0 0.0
2014-Nov-21 00:31S 27°23' E 153°10'0 0.0
2014-Nov-20 23:31S 27°23' E 153°10'0 0.0
2014-Nov-20 22:31S 27°23' E 153°10'0 0.0
2014-Nov-20 21:31S 27°23' E 153°10'0 0.0
2014-Nov-20 20:31S 27°23' E 153°10'0 0.0
2014-Nov-20 19:31S 27°23' E 153°10'3 2.9
2014-Nov-20 18:33S 27°20' E 153°11'1312.5
2014-Nov-20 17:33S 27°11' E 153°21'2813.8
2014-Nov-20 15:33S 26°45' E 153°12'3 3.0
2014-Nov-20 14:33S 26°42' E 153°14'0 0.0
2014-Nov-20 13:33S 26°42' E 153°14'0 0.0
2014-Nov-20 12:33S 26°42' E 153°14'0 0.0
2014-Nov-20 11:33S 26°42' E 153°14'0 0.0
2014-Nov-20 10:33S 26°42' E 153°14'0 0.0
2014-Nov-20 09:33S 26°42' E 153°14'0 0.0
2014-Nov-20 08:33S 26°42' E 153°14'0 0.0
2014-Nov-20 07:33S 26°42' E 153°14'0 0.0
2014-Nov-20 06:33S 26°42' E 153°14'0 0.1
2014-Nov-20 05:33S 26°42' E 153°14'7 7.3
2014-Nov-20 04:33S 26°35' E 153°16'1918.9
2014-Nov-20 03:32S 26°17' E 153°21'1918.9
2014-Nov-20 02:33S 25°59' E 153°27'  

Dump ship's entire track history